EDT,Max TemperatureF,Mean TemperatureF,Min TemperatureF,Max Dew PointF,MeanDew PointF,Min DewpointF,Max Humidity, Mean Humidity, Min Humidity, Max Sea Level PressureIn, Mean Sea Level PressureIn, Min Sea Level PressureIn, Max VisibilityMiles, Mean VisibilityMiles, Min VisibilityMiles, Max Wind SpeedMPH, Mean Wind SpeedMPH, Max Gust SpeedMPH,PrecipitationIn, CloudCover, Events, WindDirDegrees
2013-5-1,69,62,54,50,47,39,83,64,45,30.30,30.23,30.14,10,10,10,20,11,29,0.00,6,,128
2013-5-2,70,60,50,48,45,37,77,61,45,30.31,30.25,30.20,10,10,10,18,11,28,0.00,2,,141
2013-5-3,65,56,47,44,40,34,82,58,34,30.21,30.17,30.10,10,10,10,28,15,35,0.00,0,,127
2013-5-4,64,54,44,42,37,31,70,50,30,30.10,30.08,30.04,10,10,10,26,17,35,0.00,1,,125
2013-5-5,62,55,47,45,37,17,77,51,25,30.06,29.99,29.93,10,10,10,26,16,38,T,5,Rain,114
2013-5-6,56,53,50,52,49,45,93,85,77,29.96,29.92,29.88,10,8,2,30,12,43,0.77,8,Rain,99
2013-5-7,57,53,49,52,49,46,96,84,72,29.99,29.93,29.88,10,9,2,9,2,13,0.75,7,Rain,61
2013-5-8,61,55,49,52,48,46,93,79,64,30.05,29.95,29.88,10,8,2,14,4,18,0.66,7,Rain,149
2013-5-9,74,62,50,52,50,47,100,71,41,30.12,30.05,29.99,10,7,0,15,7,21,0.00,5,Fog,246
2013-5-10,75,67,58,57,53,50,90,67,44,30.06,29.97,29.89,10,10,5,24,7,31,0.05,4,Rain,207
2013-5-11,67,59,50,57,53,46,93,80,67,29.94,29.88,29.81,10,8,2,17,9,23,0.36,7,Rain,261
2013-5-12,53,47,41,45,35,26,82,60,38,30.12,29.98,29.87,10,9,3,23,9,30,0.03,7,Rain,306
2013-5-13,54,45,36,32,28,23,76,56,35,30.22,30.14,30.10,10,10,10,21,6,29,T,6,,280
2013-5-14,71,52,33,45,33,27,82,55,27,30.22,30.12,29.97,10,10,10,17,7,23,0.00,1,,225
2013-5-15,83,71,58,54,50,46,72,52,31,30.02,29.95,29.88,10,10,10,24,12,31,0.00,0,,252
2013-5-16,75,66,56,57,53,45,93,71,49,30.11,29.98,29.89,10,8,2,23,6,31,0.30,4,Rain,259
2013-5-17,78,66,54,59,55,52,100,72,43,30.14,30.07,30.01,10,8,2,15,2,21,T,4,,165
2013-5-18,74,68,61,59,58,57,90,74,57,30.17,30.07,30.03,10,10,9,18,9,26,T,5,,143
2013-5-19,74,68,62,63,60,57,93,81,68,30.14,30.06,29.99,10,10,2,18,8,24,0.16,6,Rain,139
2013-5-20,69,65,61,63,61,58,93,85,76,30.16,30.07,30.00,10,9,5,13,6,,0.07,5,Rain,195
2013-5-21,82,70,57,64,60,55,100,73,46,30.12,30.01,29.89,10,8,1,29,4,39,0.03,2,Rain,225
2013-5-22,80,69,58,62,58,55,93,72,51,30.00,29.91,29.86,10,9,0,25,5,32,0.71,3,Rain,164
2013-5-23,76,67,57,61,57,53,90,70,49,29.98,29.90,29.80,10,10,2,31,7,43,0.09,7,Rain,253
2013-5-24,57,50,42,54,43,33,96,73,50,30.29,30.08,29.88,10,7,1,22,11,32,0.32,7,Rain,324
2013-5-25,60,48,36,38,33,26,89,61,32,30.36,30.31,30.28,10,10,10,17,7,26,0.00,0,,323
2013-5-26,65,53,41,41,37,35,83,59,34,30.31,30.26,30.23,10,10,10,17,5,24,0.00,2,,350
2013-5-27,75,62,48,56,46,34,73,60,47,30.28,30.19,30.10,10,10,10,13,6,17,0.01,6,Rain,150
2013-5-28,81,70,59,58,55,49,78,57,35,30.17,30.10,30.05,10,10,10,20,8,25,0.00,3,,197
2013-5-29,82,71,60,59,56,54,84,62,39,30.19,30.13,30.10,10,10,10,15,6,21,0.00,1,,212
2013-5-30,83,71,59,59,55,47,78,53,28,30.23,30.15,30.10,10,10,10,14,5,21,0.00,0,,158
2013-5-31,83,72,60,60,57,54,84,63,42,30.16,30.10,30.03,10,10,10,15,5,18,T,1,,175